sensor_id;sensor_type;location;lat;lon;timestamp;P1;durP1;ratioP1;P2;durP2;ratioP2
26157;SDS011;67284;44.782;10.282;2023-06-22T00:00:21;12.05;;;8.32;;
26157;SDS011;67284;44.782;10.282;2023-06-22T00:05:13;11.32;;;8.10;;
26157;SDS011;67284;44.782;10.282;2023-06-22T00:10:05;9.85;;;7.80;;
26157;SDS011;67284;44.782;10.282;2023-06-22T00:14:57;8.82;;;7.55;;
26157;SDS011;67284;44.782;10.282;2023-06-22T00:19:49;11.18;;;7.72;;
26157;SDS011;67284;44.782;10.282;2023-06-22T00:24:45;10.98;;;8.38;;
26157;SDS011;67284;44.782;10.282;2023-06-22T00:29:36;11.07;;;8.10;;
26157;SDS011;67284;44.782;10.282;2023-06-22T00:34:28;12.55;;;7.68;;
26157;SDS011;67284;44.782;10.282;2023-06-22T00:39:20;13.93;;;8.30;;
26157;SDS011;67284;44.782;10.282;2023-06-22T00:44:14;9.45;;;8.30;;
26157;SDS011;67284;44.782;10.282;2023-06-22T00:49:06;9.50;;;8.27;;
26157;SDS011;67284;44.782;10.282;2023-06-22T00:53:57;10.60;;;7.65;;
26157;SDS011;67284;44.782;10.282;2023-06-22T00:58:50;10.30;;;7.40;;
26157;SDS011;67284;44.782;10.282;2023-06-22T01:03:44;12.75;;;8.23;;
26157;SDS011;67284;44.782;10.282;2023-06-22T01:08:42;15.45;;;8.23;;
26157;SDS011;67284;44.782;10.282;2023-06-22T01:18:55;10.95;;;8.18;;
26157;SDS011;67284;44.782;10.282;2023-06-22T01:29:10;9.43;;;7.47;;
26157;SDS011;67284;44.782;10.282;2023-06-22T01:34:05;11.77;;;8.15;;
26157;SDS011;67284;44.782;10.282;2023-06-22T01:38:59;14.85;;;8.57;;
26157;SDS011;67284;44.782;10.282;2023-06-22T01:43:53;11.73;;;8.13;;
26157;SDS011;67284;44.782;10.282;2023-06-22T01:48:46;10.88;;;7.93;;
26157;SDS011;67284;44.782;10.282;2023-06-22T01:53:39;9.73;;;7.72;;
26157;SDS011;67284;44.782;10.282;2023-06-22T01:58:32;8.82;;;7.78;;
26157;SDS011;67284;44.782;10.282;2023-06-22T02:03:30;12.55;;;8.45;;
26157;SDS011;67284;44.782;10.282;2023-06-22T02:08:30;11.80;;;8.65;;
26157;SDS011;67284;44.782;10.282;2023-06-22T02:13:26;9.82;;;7.15;;
26157;SDS011;67284;44.782;10.282;2023-06-22T02:18:18;14.13;;;7.70;;
26157;SDS011;67284;44.782;10.282;2023-06-22T02:23:11;11.88;;;8.45;;
26157;SDS011;67284;44.782;10.282;2023-06-22T02:28:03;12.40;;;8.57;;
26157;SDS011;67284;44.782;10.282;2023-06-22T02:32:55;11.50;;;8.27;;
26157;SDS011;67284;44.782;10.282;2023-06-22T02:37:50;9.35;;;8.35;;
26157;SDS011;67284;44.782;10.282;2023-06-22T02:42:43;11.68;;;8.15;;
26157;SDS011;67284;44.782;10.282;2023-06-22T02:47:35;11.93;;;7.47;;
26157;SDS011;67284;44.782;10.282;2023-06-22T02:52:27;12.55;;;8.25;;
26157;SDS011;67284;44.782;10.282;2023-06-22T02:57:19;9.98;;;7.63;;
26157;SDS011;67284;44.782;10.282;2023-06-22T03:02:10;11.00;;;8.18;;
26157;SDS011;67284;44.782;10.282;2023-06-22T03:07:03;11.98;;;7.60;;
26157;SDS011;67284;44.782;10.282;2023-06-22T03:11:57;12.73;;;8.00;;
26157;SDS011;67284;44.782;10.282;2023-06-22T03:16:56;10.40;;;8.45;;
26157;SDS011;67284;44.782;10.282;2023-06-22T03:21:53;13.32;;;7.45;;
26157;SDS011;67284;44.782;10.282;2023-06-22T03:26:45;12.48;;;8.85;;
26157;SDS011;67284;44.782;10.282;2023-06-22T03:31:38;17.48;;;7.60;;
26157;SDS011;67284;44.782;10.282;2023-06-22T03:36:31;12.40;;;7.43;;
26157;SDS011;67284;44.782;10.282;2023-06-22T03:41:22;12.30;;;7.07;;
26157;SDS011;67284;44.782;10.282;2023-06-22T03:46:14;11.27;;;7.60;;
26157;SDS011;67284;44.782;10.282;2023-06-22T03:51:07;9.98;;;7.45;;
26157;SDS011;67284;44.782;10.282;2023-06-22T03:55:59;13.70;;;7.97;;
26157;SDS011;67284;44.782;10.282;2023-06-22T04:00:52;16.00;;;7.55;;
26157;SDS011;67284;44.782;10.282;2023-06-22T04:05:44;11.38;;;8.38;;
26157;SDS011;67284;44.782;10.282;2023-06-22T04:10:37;11.48;;;7.72;;
26157;SDS011;67284;44.782;10.282;2023-06-22T04:15:28;12.90;;;7.53;;
26157;SDS011;67284;44.782;10.282;2023-06-22T04:20:20;11.73;;;7.72;;
26157;SDS011;67284;44.782;10.282;2023-06-22T04:25:12;13.55;;;8.63;;
26157;SDS011;67284;44.782;10.282;2023-06-22T04:30:08;11.32;;;7.93;;
26157;SDS011;67284;44.782;10.282;2023-06-22T04:35:00;14.68;;;8.75;;
26157;SDS011;67284;44.782;10.282;2023-06-22T04:39:52;11.05;;;8.13;;
26157;SDS011;67284;44.782;10.282;2023-06-22T04:44:44;11.23;;;8.07;;
26157;SDS011;67284;44.782;10.282;2023-06-22T04:49:36;11.93;;;9.48;;
26157;SDS011;67284;44.782;10.282;2023-06-22T04:54:28;14.52;;;8.70;;
26157;SDS011;67284;44.782;10.282;2023-06-22T04:59:20;11.57;;;8.98;;
26157;SDS011;67284;44.782;10.282;2023-06-22T05:04:12;11.50;;;8.63;;
26157;SDS011;67284;44.782;10.282;2023-06-22T05:09:04;17.75;;;9.80;;
26157;SDS011;67284;44.782;10.282;2023-06-22T05:13:57;15.23;;;9.77;;
26157;SDS011;67284;44.782;10.282;2023-06-22T05:18:50;15.45;;;9.18;;
26157;SDS011;67284;44.782;10.282;2023-06-22T05:23:43;14.00;;;9.65;;
26157;SDS011;67284;44.782;10.282;2023-06-22T05:28:35;16.50;;;9.23;;
26157;SDS011;67284;44.782;10.282;2023-06-22T05:33:27;13.65;;;9.23;;
26157;SDS011;67284;44.782;10.282;2023-06-22T05:38:19;15.02;;;9.85;;
26157;SDS011;67284;44.782;10.282;2023-06-22T05:43:11;13.27;;;9.70;;
26157;SDS011;67284;44.782;10.282;2023-06-22T05:48:03;13.10;;;9.23;;
26157;SDS011;67284;44.782;10.282;2023-06-22T05:52:55;14.68;;;10.80;;
26157;SDS011;67284;44.782;10.282;2023-06-22T05:57:47;12.45;;;9.27;;
26157;SDS011;67284;44.782;10.282;2023-06-22T06:02:39;16.13;;;9.02;;
26157;SDS011;67284;44.782;10.282;2023-06-22T06:07:35;11.98;;;8.88;;
26157;SDS011;67284;44.782;10.282;2023-06-22T06:12:28;11.88;;;9.40;;
26157;SDS011;67284;44.782;10.282;2023-06-22T06:17:20;12.30;;;8.90;;
26157;SDS011;67284;44.782;10.282;2023-06-22T06:22:12;15.27;;;9.30;;
26157;SDS011;67284;44.782;10.282;2023-06-22T06:27:04;14.88;;;9.05;;
26157;SDS011;67284;44.782;10.282;2023-06-22T06:31:56;13.38;;;8.60;;
26157;SDS011;67284;44.782;10.282;2023-06-22T06:36:48;12.88;;;9.95;;
26157;SDS011;67284;44.782;10.282;2023-06-22T06:41:40;12.45;;;9.43;;
26157;SDS011;67284;44.782;10.282;2023-06-22T06:46:39;10.48;;;9.18;;
26157;SDS011;67284;44.782;10.282;2023-06-22T06:51:31;13.63;;;8.65;;
26157;SDS011;67284;44.782;10.282;2023-06-22T06:56:23;14.73;;;10.07;;
26157;SDS011;67284;44.782;10.282;2023-06-22T07:01:15;12.88;;;9.20;;
26157;SDS011;67284;44.782;10.282;2023-06-22T07:06:08;12.40;;;9.30;;
26157;SDS011;67284;44.782;10.282;2023-06-22T07:11:00;12.98;;;9.23;;
26157;SDS011;67284;44.782;10.282;2023-06-22T07:15:52;13.93;;;9.18;;
26157;SDS011;67284;44.782;10.282;2023-06-22T07:20:44;13.05;;;9.38;;
26157;SDS011;67284;44.782;10.282;2023-06-22T07:25:36;12.57;;;8.02;;
26157;SDS011;67284;44.782;10.282;2023-06-22T07:30:28;10.75;;;8.85;;
26157;SDS011;67284;44.782;10.282;2023-06-22T07:35:21;12.05;;;8.82;;
26157;SDS011;67284;44.782;10.282;2023-06-22T07:40:13;13.38;;;8.25;;
26157;SDS011;67284;44.782;10.282;2023-06-22T07:45:05;13.95;;;8.63;;
26157;SDS011;67284;44.782;10.282;2023-06-22T07:49:59;10.00;;;6.95;;
26157;SDS011;67284;44.782;10.282;2023-06-22T07:54:52;18.67;;;7.97;;
26157;SDS011;67284;44.782;10.282;2023-06-22T07:59:44;10.57;;;7.40;;
26157;SDS011;67284;44.782;10.282;2023-06-22T08:04:37;12.98;;;7.47;;
26157;SDS011;67284;44.782;10.282;2023-06-22T08:09:29;9.73;;;7.30;;
26157;SDS011;67284;44.782;10.282;2023-06-22T08:14:23;11.15;;;7.28;;
26157;SDS011;67284;44.782;10.282;2023-06-22T08:19:15;11.63;;;8.07;;
26157;SDS011;67284;44.782;10.282;2023-06-22T08:24:07;12.10;;;7.93;;
26157;SDS011;67284;44.782;10.282;2023-06-22T08:28:59;13.10;;;9.15;;
26157;SDS011;67284;44.782;10.282;2023-06-22T08:33:51;13.43;;;9.25;;
26157;SDS011;67284;44.782;10.282;2023-06-22T08:38:43;14.57;;;8.10;;
26157;SDS011;67284;44.782;10.282;2023-06-22T08:43:36;15.40;;;8.95;;
26157;SDS011;67284;44.782;10.282;2023-06-22T08:48:28;12.40;;;8.00;;
26157;SDS011;67284;44.782;10.282;2023-06-22T08:53:20;17.48;;;9.00;;
26157;SDS011;67284;44.782;10.282;2023-06-22T08:58:12;14.25;;;8.98;;
26157;SDS011;67284;44.782;10.282;2023-06-22T09:03:04;17.13;;;8.35;;
26157;SDS011;67284;44.782;10.282;2023-06-22T09:07:56;10.35;;;8.18;;
26157;SDS011;67284;44.782;10.282;2023-06-22T09:12:50;12.98;;;8.55;;
26157;SDS011;67284;44.782;10.282;2023-06-22T09:17:42;17.23;;;9.57;;
26157;SDS011;67284;44.782;10.282;2023-06-22T09:22:36;12.90;;;8.65;;
26157;SDS011;67284;44.782;10.282;2023-06-22T09:27:28;12.90;;;8.88;;
26157;SDS011;67284;44.782;10.282;2023-06-22T09:32:20;12.60;;;8.85;;
26157;SDS011;67284;44.782;10.282;2023-06-22T09:37:12;13.50;;;7.88;;
26157;SDS011;67284;44.782;10.282;2023-06-22T09:42:04;12.30;;;7.93;;
26157;SDS011;67284;44.782;10.282;2023-06-22T09:46:57;15.35;;;8.05;;
26157;SDS011;67284;44.782;10.282;2023-06-22T09:51:49;10.80;;;8.18;;
26157;SDS011;67284;44.782;10.282;2023-06-22T09:56:42;14.48;;;8.80;;
26157;SDS011;67284;44.782;10.282;2023-06-22T10:01:34;12.48;;;8.75;;
26157;SDS011;67284;44.782;10.282;2023-06-22T10:06:26;11.30;;;9.13;;
26157;SDS011;67284;44.782;10.282;2023-06-22T10:11:17;13.88;;;9.27;;
26157;SDS011;67284;44.782;10.282;2023-06-22T10:16:09;12.80;;;8.90;;
26157;SDS011;67284;44.782;10.282;2023-06-22T10:21:01;13.73;;;8.50;;
26157;SDS011;67284;44.782;10.282;2023-06-22T10:25:53;11.60;;;9.50;;
26157;SDS011;67284;44.782;10.282;2023-06-22T10:30:45;12.43;;;7.80;;
26157;SDS011;67284;44.782;10.282;2023-06-22T10:35:37;16.42;;;8.40;;
26157;SDS011;67284;44.782;10.282;2023-06-22T10:40:30;12.85;;;8.90;;
26157;SDS011;67284;44.782;10.282;2023-06-22T10:45:22;12.15;;;9.30;;
26157;SDS011;67284;44.782;10.282;2023-06-22T10:50:14;12.30;;;8.52;;
26157;SDS011;67284;44.782;10.282;2023-06-22T10:55:07;18.70;;;10.15;;
26157;SDS011;67284;44.782;10.282;2023-06-22T11:00:00;12.85;;;8.15;;
26157;SDS011;67284;44.782;10.282;2023-06-22T11:04:52;14.50;;;8.60;;
26157;SDS011;67284;44.782;10.282;2023-06-22T11:09:44;11.82;;;8.90;;
26157;SDS011;67284;44.782;10.282;2023-06-22T11:14:36;10.73;;;8.73;;
26157;SDS011;67284;44.782;10.282;2023-06-22T11:19:28;14.90;;;9.23;;
26157;SDS011;67284;44.782;10.282;2023-06-22T11:24:19;10.43;;;9.38;;
26157;SDS011;67284;44.782;10.282;2023-06-22T11:29:11;20.23;;;8.48;;
26157;SDS011;67284;44.782;10.282;2023-06-22T11:34:22;12.73;;;9.05;;
26157;SDS011;67284;44.782;10.282;2023-06-22T11:39:14;12.18;;;9.27;;
26157;SDS011;67284;44.782;10.282;2023-06-22T11:44:06;11.75;;;9.18;;
26157;SDS011;67284;44.782;10.282;2023-06-22T11:48:58;17.15;;;9.10;;
26157;SDS011;67284;44.782;10.282;2023-06-22T11:53:50;12.77;;;9.00;;
26157;SDS011;67284;44.782;10.282;2023-06-22T11:58:42;16.05;;;8.50;;
26157;SDS011;67284;44.782;10.282;2023-06-22T12:03:33;9.57;;;8.45;;
26157;SDS011;67284;44.782;10.282;2023-06-22T12:08:25;15.98;;;8.88;;
26157;SDS011;67284;44.782;10.282;2023-06-22T12:13:17;13.30;;;9.00;;
26157;SDS011;67284;44.782;10.282;2023-06-22T12:18:09;16.88;;;8.60;;
26157;SDS011;67284;44.782;10.282;2023-06-22T12:23:01;16.67;;;8.82;;
26157;SDS011;67284;44.782;10.282;2023-06-22T12:27:53;12.07;;;8.52;;
26157;SDS011;67284;44.782;10.282;2023-06-22T12:32:45;9.95;;;8.50;;
26157;SDS011;67284;44.782;10.282;2023-06-22T12:37:37;12.90;;;9.25;;
26157;SDS011;67284;44.782;10.282;2023-06-22T12:42:29;10.05;;;8.55;;
26157;SDS011;67284;44.782;10.282;2023-06-22T12:47:21;19.80;;;8.45;;
26157;SDS011;67284;44.782;10.282;2023-06-22T12:52:13;17.63;;;9.38;;
26157;SDS011;67284;44.782;10.282;2023-06-22T12:57:05;10.93;;;8.82;;
26157;SDS011;67284;44.782;10.282;2023-06-22T13:01:57;10.70;;;8.30;;
26157;SDS011;67284;44.782;10.282;2023-06-22T13:06:49;11.68;;;8.65;;
26157;SDS011;67284;44.782;10.282;2023-06-22T13:11:42;18.08;;;8.82;;
26157;SDS011;67284;44.782;10.282;2023-06-22T13:16:34;13.98;;;9.38;;
26157;SDS011;67284;44.782;10.282;2023-06-22T13:21:26;11.43;;;9.10;;
26157;SDS011;67284;44.782;10.282;2023-06-22T13:26:18;14.48;;;9.05;;
26157;SDS011;67284;44.782;10.282;2023-06-22T13:31:10;12.43;;;9.13;;
26157;SDS011;67284;44.782;10.282;2023-06-22T13:36:02;15.73;;;8.48;;
26157;SDS011;67284;44.782;10.282;2023-06-22T13:40:55;11.23;;;8.63;;
26157;SDS011;67284;44.782;10.282;2023-06-22T13:45:49;13.98;;;8.68;;
26157;SDS011;67284;44.782;10.282;2023-06-22T13:50:41;14.90;;;8.70;;
26157;SDS011;67284;44.782;10.282;2023-06-22T13:55:33;14.00;;;8.68;;
26157;SDS011;67284;44.782;10.282;2023-06-22T14:00:25;13.32;;;9.77;;
26157;SDS011;67284;44.782;10.282;2023-06-22T14:05:16;11.07;;;8.82;;
26157;SDS011;67284;44.782;10.282;2023-06-22T14:10:08;11.80;;;8.77;;
26157;SDS011;67284;44.782;10.282;2023-06-22T14:15:01;13.48;;;8.88;;
26157;SDS011;67284;44.782;10.282;2023-06-22T14:19:52;13.93;;;9.60;;
26157;SDS011;67284;44.782;10.282;2023-06-22T14:24:45;14.63;;;9.75;;
26157;SDS011;67284;44.782;10.282;2023-06-22T14:29:37;11.40;;;9.20;;
26157;SDS011;67284;44.782;10.282;2023-06-22T14:34:29;10.18;;;8.75;;
26157;SDS011;67284;44.782;10.282;2023-06-22T14:39:21;15.73;;;10.30;;
26157;SDS011;67284;44.782;10.282;2023-06-22T14:44:12;12.95;;;9.73;;
26157;SDS011;67284;44.782;10.282;2023-06-22T14:49:04;11.02;;;9.85;;
26157;SDS011;67284;44.782;10.282;2023-06-22T14:53:56;13.70;;;9.98;;
26157;SDS011;67284;44.782;10.282;2023-06-22T14:58:48;11.55;;;9.23;;
26157;SDS011;67284;44.782;10.282;2023-06-22T15:03:40;15.23;;;9.50;;
26157;SDS011;67284;44.782;10.282;2023-06-22T15:08:32;12.25;;;9.52;;
26157;SDS011;67284;44.782;10.282;2023-06-22T15:13:24;10.43;;;9.00;;
26157;SDS011;67284;44.782;10.282;2023-06-22T15:18:16;13.95;;;10.63;;
26157;SDS011;67284;44.782;10.282;2023-06-22T15:23:08;14.77;;;10.27;;
26157;SDS011;67284;44.782;10.282;2023-06-22T15:28:01;14.45;;;9.43;;
26157;SDS011;67284;44.782;10.282;2023-06-22T15:32:54;12.40;;;9.75;;
26157;SDS011;67284;44.782;10.282;2023-06-22T15:37:46;10.75;;;9.65;;
26157;SDS011;67284;44.782;10.282;2023-06-22T15:42:37;15.18;;;9.05;;
26157;SDS011;67284;44.782;10.282;2023-06-22T15:47:29;13.35;;;9.00;;
26157;SDS011;67284;44.782;10.282;2023-06-22T15:52:21;11.82;;;8.95;;
26157;SDS011;67284;44.782;10.282;2023-06-22T15:57:13;13.23;;;8.77;;
26157;SDS011;67284;44.782;10.282;2023-06-22T16:02:05;11.05;;;9.73;;
26157;SDS011;67284;44.782;10.282;2023-06-22T16:06:58;10.68;;;9.48;;
26157;SDS011;67284;44.782;10.282;2023-06-22T16:11:50;11.93;;;9.82;;
26157;SDS011;67284;44.782;10.282;2023-06-22T16:16:44;12.95;;;9.98;;
26157;SDS011;67284;44.782;10.282;2023-06-22T16:21:36;10.88;;;9.68;;
26157;SDS011;67284;44.782;10.282;2023-06-22T16:26:30;11.90;;;9.20;;
26157;SDS011;67284;44.782;10.282;2023-06-22T16:31:22;16.58;;;10.68;;
26157;SDS011;67284;44.782;10.282;2023-06-22T16:36:14;19.13;;;10.25;;
26157;SDS011;67284;44.782;10.282;2023-06-22T16:41:06;14.18;;;9.95;;
26157;SDS011;67284;44.782;10.282;2023-06-22T16:45:58;14.48;;;10.48;;
26157;SDS011;67284;44.782;10.282;2023-06-22T16:50:51;15.15;;;10.70;;
26157;SDS011;67284;44.782;10.282;2023-06-22T16:55:42;15.85;;;10.48;;
26157;SDS011;67284;44.782;10.282;2023-06-22T17:00:35;18.30;;;11.63;;
26157;SDS011;67284;44.782;10.282;2023-06-22T17:05:28;16.85;;;10.63;;
26157;SDS011;67284;44.782;10.282;2023-06-22T17:10:21;17.27;;;12.35;;
26157;SDS011;67284;44.782;10.282;2023-06-22T17:15:14;18.75;;;11.88;;
26157;SDS011;67284;44.782;10.282;2023-06-22T17:20:06;14.55;;;11.63;;
26157;SDS011;67284;44.782;10.282;2023-06-22T17:24:59;15.27;;;11.40;;
26157;SDS011;67284;44.782;10.282;2023-06-22T17:29:57;16.42;;;12.10;;
26157;SDS011;67284;44.782;10.282;2023-06-22T17:34:55;14.88;;;10.93;;
26157;SDS011;67284;44.782;10.282;2023-06-22T17:39:52;20.95;;;12.77;;
26157;SDS011;67284;44.782;10.282;2023-06-22T17:44:45;15.82;;;11.73;;
26157;SDS011;67284;44.782;10.282;2023-06-22T17:49:37;17.05;;;11.50;;
26157;SDS011;67284;44.782;10.282;2023-06-22T17:54:30;17.05;;;12.10;;
26157;SDS011;67284;44.782;10.282;2023-06-22T17:59:32;13.38;;;11.65;;
26157;SDS011;67284;44.782;10.282;2023-06-22T18:04:23;15.88;;;11.13;;
26157;SDS011;67284;44.782;10.282;2023-06-22T18:09:16;15.45;;;12.13;;
26157;SDS011;67284;44.782;10.282;2023-06-22T18:14:09;24.45;;;12.50;;
26157;SDS011;67284;44.782;10.282;2023-06-22T18:19:02;15.18;;;11.52;;
26157;SDS011;67284;44.782;10.282;2023-06-22T18:23:55;19.35;;;13.45;;
26157;SDS011;67284;44.782;10.282;2023-06-22T18:28:49;15.63;;;11.32;;
26157;SDS011;67284;44.782;10.282;2023-06-22T18:33:43;18.13;;;12.75;;
26157;SDS011;67284;44.782;10.282;2023-06-22T18:38:35;22.88;;;12.00;;
26157;SDS011;67284;44.782;10.282;2023-06-22T18:43:31;19.05;;;13.00;;
26157;SDS011;67284;44.782;10.282;2023-06-22T18:48:30;18.73;;;9.13;;
26157;SDS011;67284;44.782;10.282;2023-06-22T18:53:25;11.48;;;6.38;;
26157;SDS011;67284;44.782;10.282;2023-06-22T18:58:22;12.07;;;7.75;;
26157;SDS011;67284;44.782;10.282;2023-06-22T19:03:29;14.48;;;9.10;;
26157;SDS011;67284;44.782;10.282;2023-06-22T19:08:22;12.55;;;8.18;;
26157;SDS011;67284;44.782;10.282;2023-06-22T19:23:31;9.13;;;5.90;;
26157;SDS011;67284;44.782;10.282;2023-06-22T19:28:23;8.88;;;7.05;;
26157;SDS011;67284;44.782;10.282;2023-06-22T19:33:18;9.05;;;6.10;;
26157;SDS011;67284;44.782;10.282;2023-06-22T19:38:10;10.38;;;5.80;;
26157;SDS011;67284;44.782;10.282;2023-06-22T19:43:02;10.60;;;5.90;;
26157;SDS011;67284;44.782;10.282;2023-06-22T19:47:58;10.75;;;6.25;;
26157;SDS011;67284;44.782;10.282;2023-06-22T19:52:50;11.20;;;6.93;;
26157;SDS011;67284;44.782;10.282;2023-06-22T19:57:42;9.40;;;6.18;;
26157;SDS011;67284;44.782;10.282;2023-06-22T20:02:39;9.70;;;5.95;;
26157;SDS011;67284;44.782;10.282;2023-06-22T20:07:42;9.50;;;6.10;;
26157;SDS011;67284;44.782;10.282;2023-06-22T20:12:34;9.05;;;6.20;;
26157;SDS011;67284;44.782;10.282;2023-06-22T20:17:26;9.20;;;6.97;;
26157;SDS011;67284;44.782;10.282;2023-06-22T20:22:18;7.13;;;6.15;;
26157;SDS011;67284;44.782;10.282;2023-06-22T20:27:11;10.43;;;5.97;;
26157;SDS011;67284;44.782;10.282;2023-06-22T20:32:09;23.63;;;7.65;;
26157;SDS011;67284;44.782;10.282;2023-06-22T20:37:04;20.48;;;8.23;;
26157;SDS011;67284;44.782;10.282;2023-06-22T20:41:58;8.43;;;6.07;;
26157;SDS011;67284;44.782;10.282;2023-06-22T20:46:50;8.38;;;5.55;;
26157;SDS011;67284;44.782;10.282;2023-06-22T20:51:42;11.25;;;5.60;;
26157;SDS011;67284;44.782;10.282;2023-06-22T20:56:35;13.60;;;6.15;;
26157;SDS011;67284;44.782;10.282;2023-06-22T21:01:27;12.88;;;5.32;;
26157;SDS011;67284;44.782;10.282;2023-06-22T21:06:24;8.88;;;6.28;;
26157;SDS011;67284;44.782;10.282;2023-06-22T21:11:16;12.60;;;6.45;;
26157;SDS011;67284;44.782;10.282;2023-06-22T21:16:08;11.70;;;6.72;;
26157;SDS011;67284;44.782;10.282;2023-06-22T21:21:00;11.30;;;6.55;;
26157;SDS011;67284;44.782;10.282;2023-06-22T21:25:52;12.85;;;6.68;;
26157;SDS011;67284;44.782;10.282;2023-06-22T21:30:44;11.27;;;6.15;;
26157;SDS011;67284;44.782;10.282;2023-06-22T21:35:36;10.98;;;6.28;;
26157;SDS011;67284;44.782;10.282;2023-06-22T21:40:28;10.27;;;5.80;;
26157;SDS011;67284;44.782;10.282;2023-06-22T21:45:19;14.50;;;6.00;;
26157;SDS011;67284;44.782;10.282;2023-06-22T21:50:11;10.98;;;6.07;;
26157;SDS011;67284;44.782;10.282;2023-06-22T21:55:03;10.48;;;5.50;;
26157;SDS011;67284;44.782;10.282;2023-06-22T21:59:55;11.02;;;6.20;;
26157;SDS011;67284;44.782;10.282;2023-06-22T22:04:47;10.57;;;5.53;;
26157;SDS011;67284;44.782;10.282;2023-06-22T22:09:39;19.85;;;6.88;;
26157;SDS011;67284;44.782;10.282;2023-06-22T22:14:31;10.35;;;7.03;;
26157;SDS011;67284;44.782;10.282;2023-06-22T22:19:23;13.45;;;7.28;;
26157;SDS011;67284;44.782;10.282;2023-06-22T22:24:15;11.73;;;6.85;;
26157;SDS011;67284;44.782;10.282;2023-06-22T22:29:07;10.80;;;6.82;;
26157;SDS011;67284;44.782;10.282;2023-06-22T22:33:59;12.98;;;6.45;;
26157;SDS011;67284;44.782;10.282;2023-06-22T22:38:51;9.88;;;6.25;;
26157;SDS011;67284;44.782;10.282;2023-06-22T22:43:43;16.02;;;6.78;;
26157;SDS011;67284;44.782;10.282;2023-06-22T22:48:34;12.45;;;7.60;;
26157;SDS011;67284;44.782;10.282;2023-06-22T22:53:26;10.90;;;7.53;;
26157;SDS011;67284;44.782;10.282;2023-06-22T22:58:18;11.30;;;5.75;;
26157;SDS011;67284;44.782;10.282;2023-06-22T23:03:11;7.28;;;5.72;;
26157;SDS011;67284;44.782;10.282;2023-06-22T23:08:03;12.70;;;6.07;;
26157;SDS011;67284;44.782;10.282;2023-06-22T23:12:55;9.55;;;6.07;;
26157;SDS011;67284;44.782;10.282;2023-06-22T23:17:48;14.40;;;5.72;;
26157;SDS011;67284;44.782;10.282;2023-06-22T23:22:40;11.40;;;5.57;;
26157;SDS011;67284;44.782;10.282;2023-06-22T23:27:32;11.35;;;5.82;;
26157;SDS011;67284;44.782;10.282;2023-06-22T23:32:24;10.77;;;5.90;;
26157;SDS011;67284;44.782;10.282;2023-06-22T23:37:16;12.77;;;6.13;;
26157;SDS011;67284;44.782;10.282;2023-06-22T23:42:07;12.63;;;5.32;;
26157;SDS011;67284;44.782;10.282;2023-06-22T23:47:02;8.60;;;4.80;;
26157;SDS011;67284;44.782;10.282;2023-06-22T23:51:53;7.78;;;4.75;;
26157;SDS011;67284;44.782;10.282;2023-06-22T23:56:45;15.43;;;5.90;;
